createdAt,value
2018-05-25T00:00:23.981Z,97.71
2018-05-25T00:01:24.142Z,97.52
2018-05-25T00:02:24.326Z,97.33
2018-05-25T00:03:24.481Z,97.33
2018-05-25T00:04:24.672Z,97.23
2018-05-25T00:05:24.844Z,97.14
2018-05-25T00:06:24.991Z,97.04
2018-05-25T00:07:25.166Z,97.33
2018-05-25T00:08:25.333Z,97.14
2018-05-25T00:09:25.508Z,97.33
2018-05-25T00:10:25.666Z,97.23
2018-05-25T00:11:25.836Z,96.66
2018-05-25T00:12:26.026Z,97.14
2018-05-25T00:13:26.185Z,97.33
2018-05-25T00:14:26.368Z,96.85
2018-05-25T00:15:26.536Z,96.85
2018-05-25T00:16:26.702Z,97.14
2018-05-25T00:17:26.874Z,97.42
2018-05-25T00:18:27.041Z,98.19
2018-05-25T00:19:27.214Z,97.81
2018-05-25T00:20:27.387Z,98.00
2018-05-25T00:21:27.580Z,98.00
2018-05-25T00:22:27.725Z,97.52
2018-05-25T00:23:27.895Z,97.81
2018-05-25T00:24:28.068Z,98.00
2018-05-25T00:25:28.248Z,97.42
2018-05-25T00:26:28.429Z,97.71
2018-05-25T00:27:28.596Z,97.52
2018-05-25T00:28:28.768Z,97.52
2018-05-25T00:29:28.951Z,97.42
2018-05-25T00:30:29.112Z,97.33
2018-05-25T00:31:29.298Z,97.33
2018-05-25T00:32:29.492Z,97.33
2018-05-25T00:33:29.671Z,97.81
2018-05-25T00:34:29.847Z,97.23
2018-05-25T00:35:30.008Z,97.33
2018-05-25T00:36:30.164Z,97.33
2018-05-25T00:37:30.349Z,96.56
2018-05-25T00:39:30.682Z,97.42
2018-05-25T00:40:30.912Z,97.33
2018-05-25T00:41:31.043Z,97.71
2018-05-25T00:42:31.203Z,97.23
2018-05-25T00:43:31.369Z,97.81
2018-05-25T00:44:31.546Z,97.33
2018-05-25T00:45:31.728Z,97.81
2018-05-25T00:46:31.914Z,97.33
2018-05-25T00:47:32.104Z,97.71
2018-05-25T00:49:32.430Z,97.33
2018-05-25T00:50:32.607Z,96.94
2018-05-25T00:51:32.781Z,97.33
2018-05-25T00:52:32.952Z,97.42
2018-05-25T00:53:33.129Z,97.33
2018-05-25T00:54:33.288Z,97.33
2018-05-25T00:55:33.460Z,96.94
2018-05-25T00:56:33.633Z,96.94
2018-05-25T00:57:33.793Z,96.56
2018-05-25T00:58:34.368Z,96.94
2018-05-25T00:59:34.135Z,96.56
2018-05-25T01:00:34.353Z,97.04
2018-05-25T01:02:34.667Z,96.56
2018-05-25T01:03:34.845Z,96.75
2018-05-25T01:04:35.014Z,97.33
2018-05-25T01:05:35.179Z,97.42
2018-05-25T01:06:35.331Z,96.75
2018-05-25T01:07:35.503Z,96.47
2018-05-25T01:08:35.679Z,97.14
2018-05-25T01:09:35.851Z,96.66
2018-05-25T01:10:36.024Z,96.94
2018-05-25T01:12:36.365Z,96.85
2018-05-25T01:13:36.522Z,97.42
2018-05-25T01:14:36.698Z,97.33
2018-05-25T01:15:36.883Z,97.33
2018-05-25T01:16:37.058Z,97.23
2018-05-25T01:17:37.224Z,97.42
2018-05-25T01:18:37.421Z,97.14
2018-05-25T01:19:37.587Z,97.14
2018-05-25T01:20:37.775Z,97.42
2018-05-25T01:21:38.298Z,97.52
2018-05-25T01:22:38.122Z,97.61
2018-05-25T01:23:38.302Z,97.81
2018-05-25T01:24:38.487Z,97.33
2018-05-25T01:25:38.655Z,97.81
2018-05-25T01:26:38.833Z,97.71
2018-05-25T01:27:39.055Z,97.33
2018-05-25T01:28:39.179Z,97.61
2018-05-25T01:29:39.354Z,97.23
2018-05-25T01:30:39.564Z,97.33
2018-05-25T01:31:39.718Z,96.94
2018-05-25T01:32:39.867Z,97.04
2018-05-25T01:33:40.062Z,96.75
2018-05-25T01:34:40.242Z,96.66
2018-05-25T01:35:40.410Z,96.75
2018-05-25T01:36:40.577Z,96.75
2018-05-25T01:37:40.764Z,96.75
2018-05-25T01:38:40.937Z,96.75
2018-05-25T01:39:41.162Z,96.94
2018-05-25T01:40:41.307Z,97.04
2018-05-25T01:41:41.476Z,97.33
2018-05-25T01:42:41.631Z,97.71
2018-05-25T01:43:41.810Z,97.90
2018-05-25T01:44:41.993Z,98.00
2018-05-25T01:45:42.149Z,97.81
2018-05-25T01:46:42.320Z,98.86
2018-05-25T01:47:42.504Z,98.48
2018-05-25T01:48:42.684Z,98.57
2018-05-25T01:49:42.865Z,98.48
2018-05-25T01:50:43.049Z,98.38
2018-05-25T01:51:43.220Z,98.67
2018-05-25T01:52:43.398Z,98.67
2018-05-25T01:53:43.565Z,98.48
2018-05-25T01:54:43.721Z,98.38
2018-05-25T01:55:43.901Z,98.19
2018-05-25T01:56:44.068Z,98.10
2018-05-25T01:57:44.253Z,98.00
2018-05-25T01:58:44.415Z,98.10
2018-05-25T01:59:44.582Z,98.19
2018-05-25T02:00:44.761Z,98.00
2018-05-25T02:01:45.184Z,98.28
2018-05-25T02:02:45.106Z,98.19
2018-05-25T02:03:45.266Z,98.28
2018-05-25T02:04:45.452Z,98.28
2018-05-25T02:05:45.626Z,98.10
2018-05-25T02:06:45.807Z,97.90
2018-05-25T02:07:45.982Z,98.28
2018-05-25T02:08:46.152Z,98.10
2018-05-25T02:09:46.319Z,98.28
2018-05-25T02:10:46.501Z,98.38
2018-05-25T02:11:46.656Z,98.38
2018-05-25T02:12:46.840Z,98.28
2018-05-25T02:13:47.025Z,98.00
2018-05-25T02:14:47.183Z,98.10
2018-05-25T02:15:47.356Z,97.81
2018-05-25T02:16:47.522Z,97.81
2018-05-25T02:17:47.689Z,97.90
2018-05-25T02:18:47.867Z,97.52
2018-05-25T02:19:48.052Z,97.81
2018-05-25T02:20:48.223Z,98.10
2018-05-25T02:21:48.419Z,98.10
2018-05-25T02:22:48.557Z,98.28
2018-05-25T02:23:48.722Z,98.10
2018-05-25T02:24:49.133Z,98.10
2018-05-25T02:25:49.071Z,98.19
2018-05-25T02:26:49.267Z,98.19
2018-05-25T02:27:49.462Z,98.28
2018-05-25T02:28:49.621Z,98.38
2018-05-25T02:29:49.800Z,98.19
2018-05-25T02:30:49.997Z,98.57
2018-05-25T02:31:50.166Z,98.67
2018-05-25T02:32:50.335Z,98.86
2018-05-25T02:33:50.535Z,99.34
2018-05-25T02:34:50.690Z,98.86
2018-05-25T02:35:50.868Z,98.96
2018-05-25T02:36:51.008Z,98.96
2018-05-25T02:37:51.177Z,99.53
2018-05-25T02:38:51.375Z,98.72
2018-05-25T02:39:51.541Z,99.24
2018-05-25T02:40:51.706Z,98.86
2018-05-25T02:41:51.867Z,98.96
2018-05-25T02:42:52.045Z,99.15
2018-05-25T02:43:52.219Z,98.96
2018-05-25T02:44:52.410Z,99.15
2018-05-25T02:45:52.560Z,99.05
2018-05-25T02:46:52.712Z,98.96
2018-05-25T02:47:52.903Z,99.24
2018-05-25T02:48:53.052Z,99.44
2018-05-25T02:49:53.223Z,98.67
2018-05-25T02:50:53.405Z,98.57
2018-05-25T02:51:53.593Z,98.67
2018-05-25T02:52:53.779Z,99.15
2018-05-25T02:53:53.970Z,98.96
2018-05-25T02:54:54.400Z,99.05
2018-05-25T02:55:54.304Z,98.81
2018-05-25T02:56:54.523Z,98.86
2018-05-25T02:58:54.842Z,99.05
2018-05-25T02:59:55.051Z,98.96
2018-05-25T03:00:55.212Z,99.15
2018-05-25T03:01:55.354Z,98.67
2018-05-25T03:02:55.549Z,99.05
2018-05-25T03:03:55.719Z,98.91
2018-05-25T03:04:56.218Z,99.01
2018-05-25T03:05:56.067Z,99.48
2018-05-25T03:06:56.238Z,99.99
2018-05-25T03:08:56.613Z,99.99
2018-05-25T03:09:56.758Z,99.87
2018-05-25T03:10:56.937Z,99.99
2018-05-25T03:11:57.136Z,99.99
2018-05-25T03:12:57.297Z,99.99
2018-05-25T03:13:57.454Z,99.96
2018-05-25T03:14:57.633Z,99.77
2018-05-25T03:15:57.794Z,99.99
2018-05-25T03:16:58.027Z,99.96
2018-05-25T03:17:58.250Z,99.87
2018-05-25T03:18:58.348Z,99.96
2018-05-25T03:19:58.507Z,99.58
2018-05-25T03:20:58.681Z,99.77
2018-05-25T03:21:58.848Z,99.87
2018-05-25T03:22:59.020Z,99.99
2018-05-25T03:23:59.189Z,99.87
2018-05-25T03:24:59.362Z,99.77
2018-05-25T03:25:59.536Z,99.77
2018-05-25T03:26:59.708Z,99.19
2018-05-25T03:27:59.898Z,99.29
2018-05-25T03:29:00.060Z,99.01
2018-05-25T03:30:00.235Z,99.29
2018-05-25T03:31:00.407Z,99.48
2018-05-25T03:32:00.587Z,99.58
2018-05-25T03:33:00.757Z,99.99
2018-05-25T03:34:00.933Z,99.99
2018-05-25T03:35:01.097Z,99.99
2018-05-25T03:36:01.270Z,99.99
2018-05-25T03:37:01.432Z,99.99
2018-05-25T03:38:01.611Z,99.99
2018-05-25T03:39:01.780Z,99.99
2018-05-25T03:40:01.972Z,99.96
2018-05-25T03:42:02.280Z,99.99
2018-05-25T03:43:02.453Z,99.48
2018-05-25T03:44:02.623Z,99.58
2018-05-25T03:45:02.796Z,99.48
2018-05-25T03:46:02.991Z,99.58
2018-05-25T03:47:03.141Z,99.10
2018-05-25T03:48:03.317Z,99.58
2018-05-25T03:49:03.478Z,99.58
2018-05-25T03:50:03.647Z,99.29
2018-05-25T03:51:03.820Z,99.48
2018-05-25T03:52:03.991Z,99.77
2018-05-25T03:53:04.182Z,99.48
2018-05-25T03:54:04.358Z,99.19
2018-05-25T03:55:04.519Z,99.29
2018-05-25T03:56:04.699Z,99.77
2018-05-25T03:57:04.868Z,99.39
2018-05-25T03:58:05.043Z,99.01
2018-05-25T03:59:05.214Z,98.62
2018-05-25T04:00:05.385Z,98.91
2018-05-25T04:01:05.559Z,99.01
2018-05-25T04:02:05.746Z,99.19
2018-05-25T04:03:05.892Z,99.58
2018-05-25T04:04:06.059Z,99.39
2018-05-25T04:05:06.226Z,99.48
2018-05-25T04:06:06.407Z,99.96
2018-05-25T04:07:06.557Z,99.99
2018-05-25T04:08:06.752Z,99.99
2018-05-25T04:09:06.941Z,99.96
2018-05-25T04:10:07.084Z,99.99
2018-05-25T04:11:07.278Z,99.99
2018-05-25T04:12:07.462Z,99.99
2018-05-25T04:13:07.628Z,99.99
2018-05-25T04:14:07.808Z,99.99
2018-05-25T04:15:07.980Z,99.96
2018-05-25T04:16:08.151Z,99.99
2018-05-25T04:17:08.344Z,99.96
2018-05-25T04:18:08.513Z,99.99
2018-05-25T04:19:08.682Z,99.99
2018-05-25T04:20:08.848Z,99.99
2018-05-25T04:21:09.021Z,99.96
2018-05-25T04:22:09.205Z,99.99
2018-05-25T04:23:09.363Z,99.99
2018-05-25T04:24:09.527Z,99.99
2018-05-25T04:25:09.726Z,99.99
2018-05-25T04:26:09.871Z,99.99
2018-05-25T04:27:10.048Z,99.99
2018-05-25T04:28:10.224Z,99.99
2018-05-25T04:29:10.397Z,99.99
2018-05-25T04:30:10.570Z,99.99
2018-05-25T04:31:10.731Z,99.99
2018-05-25T04:32:10.909Z,99.96
2018-05-25T04:33:11.119Z,99.77
2018-05-25T04:34:11.284Z,99.01
2018-05-25T04:35:11.451Z,99.19
2018-05-25T04:36:11.627Z,99.10
2018-05-25T04:37:11.796Z,99.29
2018-05-25T04:38:11.981Z,99.01
2018-05-25T04:39:12.130Z,99.01
2018-05-25T04:40:12.305Z,99.10
2018-05-25T04:41:12.484Z,99.05
2018-05-25T04:42:12.635Z,99.10
2018-05-25T04:43:12.854Z,99.34
2018-05-25T04:44:12.999Z,98.86
2018-05-25T04:45:13.152Z,98.86
2018-05-25T04:46:13.340Z,98.86
2018-05-25T04:47:13.515Z,98.77
2018-05-25T04:48:13.677Z,98.28
2018-05-25T04:49:13.849Z,99.05
2018-05-25T04:50:14.015Z,98.86
2018-05-25T04:51:14.194Z,98.96
2018-05-25T04:52:14.353Z,98.67
2018-05-25T04:53:14.534Z,98.19
2018-05-25T04:54:14.708Z,98.19
2018-05-25T04:55:14.878Z,98.28
2018-05-25T04:56:15.086Z,97.81
2018-05-25T04:57:15.224Z,97.61
2018-05-25T04:58:15.403Z,97.81
2018-05-25T04:59:15.580Z,97.38
2018-05-25T05:00:15.763Z,96.80
2018-05-25T05:01:15.923Z,96.89
2018-05-25T05:02:16.108Z,96.80
2018-05-25T05:03:16.277Z,97.09
2018-05-25T05:04:16.446Z,96.51
2018-05-25T05:05:16.646Z,96.80
2018-05-25T05:06:16.798Z,96.32
2018-05-25T05:07:16.960Z,96.61
2018-05-25T05:08:17.142Z,96.61
2018-05-25T05:09:17.351Z,96.70
2018-05-25T05:10:17.488Z,96.70
2018-05-25T05:11:17.663Z,96.70
2018-05-25T05:12:17.830Z,96.61
2018-05-25T05:13:18.014Z,96.42
2018-05-25T05:14:18.189Z,96.70
2018-05-25T05:15:18.361Z,96.70
2018-05-25T05:16:18.553Z,95.94
2018-05-25T05:17:18.735Z,96.42
2018-05-25T05:18:18.910Z,96.70
2018-05-25T05:19:19.082Z,96.61
2018-05-25T05:20:19.280Z,96.99
2018-05-25T05:21:19.443Z,96.89
2018-05-25T05:22:19.624Z,96.80
2018-05-25T05:23:19.804Z,96.61
2018-05-25T05:24:19.939Z,97.09
2018-05-25T05:25:20.115Z,96.61
2018-05-25T05:26:20.277Z,96.80
2018-05-25T05:27:20.459Z,96.70
2018-05-25T05:28:20.619Z,96.80
2018-05-25T05:29:20.801Z,96.89
2018-05-25T05:30:21.011Z,96.51
2018-05-25T05:31:21.167Z,96.42
2018-05-25T05:32:21.342Z,96.70
2018-05-25T05:33:21.522Z,96.13
2018-05-25T05:34:21.711Z,95.65
2018-05-25T05:35:21.896Z,95.07
2018-05-25T05:36:22.105Z,94.98
2018-05-25T05:37:22.299Z,95.12
2018-05-25T05:38:22.482Z,95.12
2018-05-25T05:39:22.661Z,94.88
2018-05-25T05:40:22.823Z,95.26
2018-05-25T05:41:23.015Z,95.36
2018-05-25T05:42:23.191Z,95.26
2018-05-25T05:43:23.371Z,95.55
2018-05-25T05:44:23.560Z,95.36
2018-05-25T05:45:23.742Z,95.65
2018-05-25T05:46:23.938Z,96.42
2018-05-25T05:47:24.110Z,96.03
2018-05-25T05:48:24.332Z,95.79
2018-05-25T05:49:24.480Z,95.07
2018-05-25T05:50:24.664Z,95.07
2018-05-25T05:51:24.853Z,95.94
2018-05-25T05:52:25.036Z,95.07
2018-05-25T05:53:25.213Z,94.98
2018-05-25T05:54:25.419Z,95.65
2018-05-25T05:55:25.594Z,95.55
2018-05-25T05:56:25.779Z,94.98
2018-05-25T05:57:25.956Z,95.12
2018-05-25T05:58:26.142Z,94.74
2018-05-25T05:59:26.313Z,93.97
2018-05-25T06:00:26.501Z,94.07
2018-05-25T06:02:26.874Z,93.68
2018-05-25T06:03:27.053Z,94.01
2018-05-25T06:04:27.345Z,93.15
2018-05-25T06:05:27.419Z,92.77
2018-05-25T06:06:27.603Z,92.77
2018-05-25T06:07:27.798Z,92.29
2018-05-25T06:08:27.978Z,90.99
2018-05-25T06:09:28.159Z,91.85
2018-05-25T06:10:28.356Z,90.99
2018-05-25T06:11:28.532Z,91.37
2018-05-25T06:12:28.798Z,91.71
2018-05-25T06:13:28.910Z,91.61
2018-05-25T06:14:29.095Z,91.61
2018-05-25T06:15:29.281Z,92.96
2018-05-25T06:16:29.463Z,93.34
2018-05-25T06:17:29.652Z,93.25
2018-05-25T06:18:29.847Z,92.57
2018-05-25T06:19:30.031Z,92.57
2018-05-25T06:20:30.210Z,91.95
2018-05-25T06:21:30.411Z,92.19
2018-05-25T06:22:30.582Z,91.56
2018-05-25T06:23:30.768Z,91.37
2018-05-25T06:24:30.956Z,90.99
2018-05-25T06:25:31.136Z,90.80
2018-05-25T06:26:31.321Z,89.74
2018-05-25T06:27:31.508Z,90.80
2018-05-25T06:28:31.699Z,92.00
2018-05-25T06:29:31.880Z,91.90
2018-05-25T06:30:32.069Z,91.13
2018-05-25T06:31:32.259Z,90.89
2018-05-25T06:32:32.761Z,90.80
2018-05-25T06:33:32.616Z,90.31
2018-05-25T06:34:32.813Z,89.30
2018-05-25T06:35:32.996Z,88.63
2018-05-25T06:36:33.190Z,89.11
2018-05-25T06:37:33.376Z,88.63
2018-05-25T06:38:33.563Z,87.86
2018-05-25T06:39:33.740Z,88.10
2018-05-25T06:40:33.936Z,87.90
2018-05-25T06:41:34.122Z,87.62
2018-05-25T06:42:34.301Z,86.75
2018-05-25T06:43:34.485Z,85.88
2018-05-25T06:44:34.674Z,86.99
2018-05-25T06:45:34.872Z,85.00
2018-05-25T06:46:35.050Z,82.64
2018-05-25T06:47:35.237Z,81.24
2018-05-25T06:48:35.420Z,78.71
2018-05-25T06:49:35.605Z,78.58
2018-05-25T06:50:35.797Z,80.62
2018-05-25T06:51:36.002Z,80.02
2018-05-25T06:52:36.168Z,78.33
2018-05-25T06:53:36.360Z,78.67
2018-05-25T06:54:36.537Z,76.78
2018-05-25T06:55:36.734Z,75.89
2018-05-25T06:56:36.910Z,74.35
2018-05-25T06:57:37.100Z,73.03
2018-05-25T06:58:37.295Z,71.78
2018-05-25T06:59:37.479Z,71.48
2018-05-25T07:00:37.680Z,70.84
2018-05-25T07:01:37.864Z,70.20
2018-05-25T07:02:38.049Z,69.68
2018-05-25T07:03:38.238Z,69.33
2018-05-25T07:04:38.427Z,68.49
2018-05-25T07:05:38.618Z,68.40
2018-05-25T07:06:38.860Z,68.15
2018-05-25T07:07:38.995Z,67.18
2018-05-25T07:08:39.183Z,66.95
2018-05-25T07:09:39.367Z,71.36
2018-05-25T07:10:39.563Z,74.37
2018-05-25T07:11:39.749Z,74.02
2018-05-25T07:12:39.933Z,74.21
2018-05-25T07:13:40.127Z,73.48
2018-05-25T07:14:40.316Z,74.16
2018-05-25T07:15:40.504Z,73.38
2018-05-25T07:16:40.704Z,73.48
2018-05-25T07:17:40.882Z,73.48
2018-05-25T07:18:41.074Z,73.67
2018-05-25T07:19:41.266Z,73.00
2018-05-25T07:20:41.462Z,72.32
2018-05-25T07:21:41.648Z,72.71
2018-05-25T07:22:41.841Z,73.50
2018-05-25T07:23:42.028Z,76.84
2018-05-25T07:24:42.222Z,75.62
2018-05-25T07:25:42.408Z,76.30
2018-05-25T07:26:42.597Z,75.62
2018-05-25T07:27:42.786Z,75.67
2018-05-25T07:28:42.980Z,74.25
2018-05-25T07:29:43.170Z,72.84
2018-05-25T07:30:43.360Z,71.42
2018-05-25T07:31:43.547Z,70.10
2018-05-25T07:32:43.743Z,69.17
2018-05-25T07:33:43.973Z,68.11
2018-05-25T07:34:44.115Z,68.05
2018-05-25T07:36:44.490Z,66.50
2018-05-25T07:37:44.688Z,67.43
2018-05-25T07:38:44.873Z,67.56
2018-05-25T07:39:45.062Z,66.30
2018-05-25T07:40:45.249Z,65.37
2018-05-25T07:41:45.435Z,65.66
2018-05-25T07:42:45.623Z,66.11
2018-05-25T07:43:45.812Z,66.78
2018-05-25T07:44:46.000Z,67.24
2018-05-25T07:45:46.195Z,66.69
2018-05-25T07:46:46.393Z,66.50
2018-05-25T07:47:46.587Z,67.14
2018-05-25T07:48:46.793Z,67.33
2018-05-25T07:49:46.985Z,68.01
2018-05-25T07:50:47.176Z,67.63
2018-05-25T07:51:47.358Z,68.01
2018-05-25T07:52:47.557Z,68.49
2018-05-25T07:53:47.741Z,67.82
2018-05-25T07:54:47.927Z,66.69
2018-05-25T07:55:48.125Z,66.43
2018-05-25T07:56:48.315Z,65.56
2018-05-25T07:57:48.506Z,64.62
2018-05-25T07:58:48.692Z,64.53
2018-05-25T07:59:48.883Z,66.66
2018-05-25T08:00:49.083Z,67.11
2018-05-25T08:01:49.275Z,68.59
2018-05-25T08:02:49.461Z,68.21
2018-05-25T08:03:49.648Z,68.01
2018-05-25T08:04:49.838Z,67.33
2018-05-25T08:05:50.033Z,67.05
2018-05-25T08:06:50.222Z,67.88
2018-05-25T08:07:50.416Z,72.32
2018-05-25T08:08:50.614Z,71.68
2018-05-25T08:09:50.997Z,70.26
2018-05-25T08:10:50.950Z,70.07
2018-05-25T08:11:51.192Z,68.95
2018-05-25T08:12:51.475Z,69.04
2018-05-25T08:13:53.272Z,69.49
2018-05-25T08:14:54.014Z,69.33
2018-05-25T08:15:51.946Z,69.43
2018-05-25T08:16:52.094Z,68.01
2018-05-25T08:18:52.523Z,65.95
2018-05-25T08:19:52.839Z,65.75
2018-05-25T08:20:52.884Z,66.11
2018-05-25T08:21:54.009Z,67.91
2018-05-25T08:22:53.260Z,66.75
2018-05-25T08:23:53.526Z,67.56
2018-05-25T08:24:53.786Z,66.66
2018-05-25T08:25:53.822Z,65.85
2018-05-25T08:26:54.142Z,65.53
2018-05-25T08:27:54.253Z,65.63
2018-05-25T08:28:54.702Z,67.11
2018-05-25T08:29:54.824Z,67.91
2018-05-25T08:30:54.931Z,66.37
2018-05-25T08:31:55.075Z,65.95
2018-05-25T08:32:55.281Z,65.56
2018-05-25T08:33:55.484Z,64.62
2018-05-25T08:34:55.697Z,63.30
2018-05-25T08:35:55.917Z,61.58
2018-05-25T08:36:56.091Z,61.32
2018-05-25T08:37:56.302Z,63.62
2018-05-25T08:39:06.211Z,65.24
2018-05-25T08:39:56.932Z,65.66
2018-05-25T08:40:57.737Z,65.37
2018-05-25T08:41:57.083Z,64.11
2018-05-25T08:42:57.168Z,63.56
2018-05-25T08:43:57.434Z,62.98
2018-05-25T08:44:57.491Z,64.01
2018-05-25T08:45:57.698Z,64.89
2018-05-25T08:46:57.863Z,65.08
2018-05-25T08:47:58.052Z,65.08
2018-05-25T08:48:58.249Z,65.30
2018-05-25T08:49:58.691Z,66.85
2018-05-25T08:50:58.632Z,66.56
2018-05-25T08:51:58.831Z,67.14
2018-05-25T08:52:59.002Z,68.66
2018-05-25T08:53:59.193Z,68.59
2018-05-25T08:54:59.392Z,68.46
2018-05-25T08:55:59.586Z,69.62
2018-05-25T08:57:00.008Z,69.14
2018-05-25T08:57:59.954Z,69.14
2018-05-25T08:59:00.140Z,68.46
2018-05-25T09:00:00.335Z,68.66
2018-05-25T09:01:00.522Z,69.04
2018-05-25T09:02:00.721Z,69.14
2018-05-25T09:03:00.909Z,69.24
2018-05-25T09:04:01.100Z,69.43
2018-05-25T09:05:01.339Z,69.04
2018-05-25T09:06:01.486Z,69.24
2018-05-25T09:07:01.682Z,68.82
2018-05-25T09:08:01.868Z,69.88
2018-05-25T09:09:02.064Z,69.24
2018-05-25T09:10:02.252Z,68.21
2018-05-25T09:11:02.451Z,68.27
2018-05-25T09:12:02.627Z,68.43
2018-05-25T09:13:02.813Z,69.01
2018-05-25T09:14:03.010Z,69.49
2018-05-25T09:15:03.197Z,68.66
2018-05-25T09:16:03.413Z,67.98
2018-05-25T09:17:03.572Z,68.30
2018-05-25T09:18:03.746Z,69.68
2018-05-25T09:19:03.948Z,69.74
2018-05-25T09:20:04.139Z,70.81
2018-05-25T09:21:04.336Z,69.78
2018-05-25T09:22:04.526Z,68.43
2018-05-25T09:23:04.714Z,67.98
2018-05-25T09:24:04.905Z,67.53
2018-05-25T09:25:05.078Z,66.47
2018-05-25T09:26:05.288Z,65.14
2018-05-25T09:27:05.444Z,64.30
2018-05-25T09:28:05.638Z,64.40
2018-05-25T09:29:05.829Z,64.01
2018-05-25T09:30:06.051Z,64.37
2018-05-25T09:31:06.216Z,64.04
2018-05-25T09:32:06.648Z,64.92
2018-05-25T09:33:06.590Z,65.56
2018-05-25T09:34:06.784Z,65.92
2018-05-25T09:35:06.989Z,67.17
2018-05-25T09:36:07.170Z,67.17
2018-05-25T09:37:07.367Z,66.85
2018-05-25T09:38:07.548Z,66.78
2018-05-25T09:39:07.743Z,67.11
2018-05-25T09:40:07.941Z,66.37
2018-05-25T09:41:08.124Z,65.69
2018-05-25T09:42:08.318Z,65.24
2018-05-25T09:43:08.525Z,64.27
2018-05-25T09:44:08.685Z,63.98
2018-05-25T09:45:08.878Z,64.47
2018-05-25T09:46:09.412Z,64.17
2018-05-25T09:47:09.212Z,64.98
2018-05-25T09:48:09.407Z,65.92
2018-05-25T09:49:09.589Z,66.36
2018-05-25T09:50:09.791Z,67.14
2018-05-25T09:51:09.962Z,67.56
2018-05-25T09:52:10.145Z,67.94
2018-05-25T09:53:10.336Z,66.98
2018-05-25T09:54:10.526Z,67.94
2018-05-25T09:55:10.709Z,67.56
2018-05-25T09:56:11.011Z,67.08
2018-05-25T09:57:11.110Z,67.69
2018-05-25T09:58:11.293Z,67.30
2018-05-25T09:59:11.487Z,67.14
2018-05-25T10:00:11.923Z,65.88
2018-05-25T10:01:11.865Z,65.30
2018-05-25T10:02:12.042Z,65.53
2018-05-25T10:03:12.258Z,65.72
2018-05-25T10:04:12.420Z,64.85
2018-05-25T10:05:12.605Z,64.56
2018-05-25T10:06:12.802Z,64.85
2018-05-25T10:07:13.229Z,64.66
2018-05-25T10:08:13.186Z,65.30
2018-05-25T10:09:13.369Z,65.59
2018-05-25T10:10:13.562Z,66.56
2018-05-25T10:11:13.752Z,65.98
2018-05-25T10:12:13.945Z,66.27
2018-05-25T10:13:14.133Z,65.40
2018-05-25T10:14:14.565Z,66.27
2018-05-25T10:15:14.511Z,66.47
2018-05-25T10:16:14.688Z,67.11
2018-05-25T10:17:14.870Z,66.95
2018-05-25T10:18:15.052Z,67.49
2018-05-25T10:19:15.237Z,66.47
2018-05-25T10:20:15.423Z,66.66
2018-05-25T10:21:15.619Z,66.66
2018-05-25T10:22:15.793Z,66.66
2018-05-25T10:23:15.987Z,67.05
2018-05-25T10:25:16.358Z,68.17
2018-05-25T10:26:16.544Z,67.88
2018-05-25T10:27:16.743Z,67.79
2018-05-25T10:28:16.931Z,66.95
2018-05-25T10:29:17.123Z,66.37
2018-05-25T10:30:17.312Z,65.63
2018-05-25T10:31:17.493Z,65.59
2018-05-25T10:32:17.682Z,67.24
2018-05-25T10:33:17.858Z,67.24
2018-05-25T10:34:18.057Z,67.14
2018-05-25T10:35:18.240Z,65.59
2018-05-25T10:36:18.417Z,65.34
2018-05-25T10:37:18.604Z,64.98
2018-05-25T10:38:18.805Z,64.69
2018-05-25T10:39:18.998Z,64.11
2018-05-25T10:40:19.147Z,64.40
2018-05-25T10:41:19.384Z,63.62
2018-05-25T10:42:19.520Z,64.11
2018-05-25T10:43:19.706Z,63.62
2018-05-25T10:44:19.893Z,63.27
2018-05-25T10:45:20.333Z,62.79
2018-05-25T10:46:20.287Z,63.34
2018-05-25T10:47:20.463Z,62.79
2018-05-25T10:48:20.656Z,62.04
2018-05-25T10:49:20.840Z,60.88
2018-05-25T10:50:21.025Z,61.36
2018-05-25T10:51:21.213Z,61.43
2018-05-25T10:52:21.397Z,63.31
2018-05-25T10:53:21.582Z,64.37
2018-05-25T10:54:21.771Z,64.30
2018-05-25T10:55:21.963Z,64.30
2018-05-25T10:56:22.165Z,62.88
2018-05-25T10:57:22.359Z,63.27
2018-05-25T10:58:22.536Z,63.17
2018-05-25T10:59:22.717Z,62.62
2018-05-25T11:00:22.911Z,61.07
2018-05-25T11:01:23.083Z,60.30
2018-05-25T11:02:23.267Z,60.68
2018-05-25T11:03:23.455Z,60.10
2018-05-25T11:04:23.645Z,59.84
2018-05-25T11:05:23.835Z,59.91
2018-05-25T11:06:24.290Z,61.24
2018-05-25T11:07:24.214Z,60.36
2018-05-25T11:08:24.390Z,60.30
2018-05-25T11:10:24.752Z,58.58
2018-05-25T11:11:24.961Z,58.22
2018-05-25T11:12:25.130Z,58.09
2018-05-25T11:13:25.320Z,57.83
2018-05-25T11:14:25.518Z,58.12
2018-05-25T11:15:25.736Z,57.87
2018-05-25T11:16:25.881Z,59.91
2018-05-25T11:17:26.091Z,60.10
2018-05-25T11:18:26.283Z,60.13
2018-05-25T11:19:26.474Z,58.58
2018-05-25T11:20:26.667Z,57.70
2018-05-25T11:21:26.872Z,57.70
2018-05-25T11:22:27.055Z,57.80
2018-05-25T11:23:27.242Z,57.51
2018-05-25T11:24:27.428Z,57.61
2018-05-25T11:25:27.628Z,57.34
2018-05-25T11:26:27.805Z,57.44
2018-05-25T11:27:28.010Z,57.06
2018-05-25T11:28:28.200Z,56.61
2018-05-25T11:29:28.388Z,57.09
2018-05-25T11:30:28.577Z,57.42
2018-05-25T11:31:28.752Z,56.93
2018-05-25T11:32:28.970Z,56.35
2018-05-25T11:33:29.153Z,56.45
2018-05-25T11:34:29.351Z,56.93
2018-05-25T11:35:29.526Z,56.93
2018-05-25T11:36:29.722Z,57.48
2018-05-25T11:37:29.910Z,57.68
2018-05-25T11:38:30.105Z,57.87
2018-05-25T11:39:30.281Z,57.97
2018-05-25T11:40:30.487Z,57.87
2018-05-25T11:41:30.656Z,58.26
2018-05-25T11:42:30.848Z,57.97
2018-05-25T11:43:31.035Z,57.87
2018-05-25T11:44:31.226Z,57.68
2018-05-25T11:45:31.415Z,57.80
2018-05-25T11:46:31.616Z,57.68
2018-05-25T11:47:31.810Z,58.29
2018-05-25T11:48:32.329Z,57.61
2018-05-25T11:49:32.197Z,57.68
2018-05-25T11:50:32.390Z,58.45
2018-05-25T11:51:32.595Z,58.55
2018-05-25T11:52:32.758Z,59.27
2018-05-25T11:53:32.942Z,59.78
2018-05-25T11:54:33.124Z,58.91
2018-05-25T11:55:33.316Z,59.10
2018-05-25T11:56:33.521Z,60.33
2018-05-25T11:57:33.709Z,60.43
2018-05-25T11:58:33.895Z,59.84
2018-05-25T11:59:34.108Z,59.88
2018-05-25T12:00:34.281Z,59.30
2018-05-25T12:01:34.473Z,58.98
2018-05-25T12:02:34.945Z,59.66
2018-05-25T12:03:34.850Z,60.24
2018-05-25T12:04:35.053Z,59.36
2018-05-25T12:05:35.229Z,58.98
2018-05-25T12:06:35.441Z,59.07
2018-05-25T12:07:35.611Z,59.23
2018-05-25T12:08:35.798Z,58.69
2018-05-25T12:09:36.250Z,58.88
2018-05-25T12:10:36.177Z,59.05
2018-05-25T12:11:36.460Z,58.59
2018-05-25T12:12:36.607Z,58.95
2018-05-25T12:13:36.762Z,58.75
2018-05-25T12:14:36.923Z,58.47
2018-05-25T12:15:37.128Z,58.44
2018-05-25T12:16:37.321Z,59.14
2018-05-25T12:17:37.536Z,58.63
2018-05-25T12:18:37.694Z,59.89
2018-05-25T12:19:37.882Z,59.05
2018-05-25T12:20:38.077Z,58.27
2018-05-25T12:21:38.270Z,58.63
2018-05-25T12:22:38.450Z,59.69
2018-05-25T12:23:39.349Z,58.85
2018-05-25T12:24:38.820Z,58.85
2018-05-25T12:25:39.012Z,58.69
2018-05-25T12:26:39.203Z,57.81
2018-05-25T12:27:39.458Z,56.87
2018-05-25T12:28:39.542Z,56.20
2018-05-25T12:29:39.751Z,55.26
2018-05-25T12:30:39.923Z,56.10
2018-05-25T12:31:40.148Z,56.59
2018-05-25T12:32:40.287Z,56.39
2018-05-25T12:33:40.742Z,56.59
2018-05-25T12:34:40.688Z,56.10
2018-05-25T12:35:40.858Z,55.35
2018-05-25T12:36:41.053Z,54.77
2018-05-25T12:37:41.242Z,54.60
2018-05-25T12:38:41.431Z,54.77
2018-05-25T12:39:41.628Z,55.42
2018-05-25T12:40:41.808Z,55.74
2018-05-25T12:41:42.007Z,54.94
2018-05-25T12:42:42.181Z,55.16
2018-05-25T12:43:42.364Z,55.26
2018-05-25T12:44:42.561Z,54.77
2018-05-25T12:45:42.761Z,54.67
2018-05-25T12:46:42.937Z,54.60
2018-05-25T12:47:43.166Z,53.63
2018-05-25T12:48:43.322Z,54.96
2018-05-25T12:49:43.497Z,54.96
2018-05-25T12:50:43.685Z,55.06
2018-05-25T12:51:43.877Z,55.35
2018-05-25T12:52:44.061Z,56.54
2018-05-25T12:53:44.241Z,56.15
2018-05-25T12:54:44.439Z,55.67
2018-05-25T12:55:44.625Z,55.31
2018-05-25T12:56:44.876Z,55.87
2018-05-25T12:57:45.014Z,55.21
2018-05-25T12:58:45.191Z,53.95
2018-05-25T12:59:45.385Z,53.97
2018-05-25T13:00:45.575Z,55.04
2018-05-25T13:01:45.757Z,55.33
2018-05-25T13:02:45.951Z,56.01
2018-05-25T13:03:46.144Z,56.21
2018-05-25T13:04:46.335Z,56.47
2018-05-25T13:05:46.518Z,57.64
2018-05-25T13:06:46.710Z,57.73